createdAt,value
2019-04-29T00:00:50.201Z,10.30
2019-04-29T00:03:21.672Z,10.30
2019-04-29T00:05:52.846Z,10.20
2019-04-29T00:08:24.155Z,10.20
2019-04-29T00:10:55.224Z,10.20
2019-04-29T00:13:26.575Z,10.30
2019-04-29T00:16:22.537Z,10.20
2019-04-29T00:19:06.699Z,10.20
2019-04-29T00:21:38.361Z,10.20
2019-04-29T00:24:09.525Z,10.20
2019-04-29T00:26:40.725Z,10.20
2019-04-29T00:29:11.870Z,10.20
2019-04-29T00:31:43.144Z,10.10
2019-04-29T00:34:14.216Z,10.10
2019-04-29T00:36:52.222Z,10.10
2019-04-29T00:39:47.210Z,10.10
2019-04-29T00:42:37.260Z,10.10
2019-04-29T00:45:09.017Z,10.10
2019-04-29T00:47:40.121Z,10.10
2019-04-29T00:50:11.454Z,10.10
2019-04-29T00:52:42.602Z,10.10
2019-04-29T00:55:16.332Z,10.20
2019-04-29T00:57:47.342Z,10.20
2019-04-29T01:00:31.637Z,10.20
2019-04-29T01:03:02.768Z,10.30
2019-04-29T01:05:33.885Z,10.30
2019-04-29T01:08:05.200Z,10.30
2019-04-29T01:10:36.245Z,10.30
2019-04-29T01:13:07.413Z,10.30
2019-04-29T01:15:38.536Z,10.40
2019-04-29T01:18:09.933Z,10.30
2019-04-29T01:20:40.944Z,10.40
2019-04-29T01:23:11.987Z,10.40
2019-04-29T01:25:44.575Z,10.40
2019-04-29T01:28:27.586Z,10.40
2019-04-29T01:31:04.319Z,10.40
2019-04-29T01:33:35.765Z,10.30
2019-04-29T01:36:48.718Z,10.30
2019-04-29T01:39:59.960Z,10.30
2019-04-29T01:42:51.092Z,10.40
2019-04-29T01:45:24.436Z,10.40
2019-04-29T01:47:55.472Z,10.40
2019-04-29T01:50:26.382Z,10.50
2019-04-29T01:52:57.352Z,10.50
2019-04-29T01:55:39.395Z,10.60
2019-04-29T01:58:29.939Z,10.60
2019-04-29T02:01:11.710Z,10.60
2019-04-29T02:03:45.574Z,10.60
2019-04-29T02:06:16.540Z,10.70
2019-04-29T02:08:48.014Z,10.70
2019-04-29T02:11:18.992Z,10.70
2019-04-29T02:13:49.946Z,10.60
2019-04-29T02:16:21.189Z,10.60
2019-04-29T02:18:52.176Z,10.70
2019-04-29T02:21:23.295Z,10.70
2019-04-29T02:24:03.643Z,10.70
2019-04-29T02:26:34.824Z,10.70
2019-04-29T02:29:06.054Z,10.70
2019-04-29T02:31:41.342Z,10.70
2019-04-29T02:34:12.610Z,10.70
2019-04-29T02:36:43.698Z,10.70
2019-04-29T02:39:33.653Z,10.70
2019-04-29T02:42:22.465Z,10.70
2019-04-29T02:44:54.623Z,10.70
2019-04-29T02:47:25.593Z,10.60
2019-04-29T02:49:56.692Z,10.60
2019-04-29T02:52:27.915Z,10.60
2019-04-29T02:55:01.283Z,10.50
2019-04-29T02:57:50.019Z,10.50
2019-04-29T03:00:46.369Z,10.40
2019-04-29T03:03:26.577Z,10.30
2019-04-29T03:06:00.894Z,10.30
2019-04-29T03:08:32.115Z,10.20
2019-04-29T03:11:03.186Z,10.20
2019-04-29T03:13:34.547Z,10.20
2019-04-29T03:16:05.911Z,10.10
2019-04-29T03:18:39.284Z,10.00
2019-04-29T03:21:21.003Z,10.00
2019-04-29T03:23:55.777Z,9.90
2019-04-29T03:26:37.245Z,9.90
2019-04-29T03:31:53.240Z,9.70
2019-04-29T03:34:24.357Z,9.60
2019-04-29T03:36:55.856Z,9.50
2019-04-29T03:39:26.963Z,9.50
2019-04-29T03:41:58.641Z,9.50
2019-04-29T03:44:31.033Z,9.40
2019-04-29T03:47:03.007Z,9.40
2019-04-29T03:49:34.624Z,9.40
2019-04-29T03:52:06.257Z,9.30
2019-04-29T03:54:37.947Z,9.20
2019-04-29T03:57:11.165Z,9.20
2019-04-29T03:59:42.933Z,9.20
2019-04-29T04:02:40.326Z,9.30
2019-04-29T04:05:30.732Z,9.30
2019-04-29T04:08:29.732Z,9.30
2019-04-29T04:11:00.962Z,9.30
2019-04-29T04:13:32.581Z,9.40
2019-04-29T04:16:05.122Z,9.40
2019-04-29T04:18:36.988Z,9.40
2019-04-29T04:21:08.839Z,9.50
2019-04-29T04:23:40.244Z,9.50
2019-04-29T04:26:12.029Z,9.50
2019-04-29T04:28:43.270Z,9.60
2019-04-29T04:31:14.416Z,9.60
2019-04-29T04:33:45.502Z,9.70
2019-04-29T04:36:17.153Z,9.70
2019-04-29T04:38:48.760Z,9.80
2019-04-29T04:41:20.460Z,9.80
2019-04-29T04:43:51.973Z,9.80
2019-04-29T04:46:23.532Z,9.90
2019-04-29T04:48:55.013Z,9.90
2019-04-29T04:51:26.497Z,10.00
2019-04-29T04:53:58.093Z,10.10
2019-04-29T04:59:13.992Z,10.20
2019-04-29T05:01:45.724Z,10.30
2019-04-29T05:04:17.337Z,10.40
2019-04-29T05:06:48.485Z,10.50
2019-04-29T05:09:19.451Z,10.50
2019-04-29T05:11:50.537Z,10.60
2019-04-29T05:14:22.637Z,10.70
2019-04-29T05:16:54.848Z,10.70
2019-04-29T05:19:26.526Z,10.80
2019-04-29T05:21:58.255Z,10.90
2019-04-29T05:24:29.404Z,11.00
2019-04-29T05:27:01.255Z,11.20
2019-04-29T05:29:32.749Z,11.20
2019-04-29T05:32:04.511Z,11.40
2019-04-29T05:34:37.095Z,11.50
2019-04-29T05:37:24.270Z,11.60
2019-04-29T05:39:55.905Z,11.70
2019-04-29T05:42:28.058Z,11.80
2019-04-29T05:45:23.252Z,11.90
2019-04-29T05:48:03.611Z,12.00
2019-04-29T05:50:52.035Z,12.10
2019-04-29T05:53:36.182Z,12.10
2019-04-29T05:56:08.124Z,12.20
2019-04-29T05:58:39.918Z,12.30
2019-04-29T06:01:16.568Z,12.40
2019-04-29T06:03:48.405Z,12.40
2019-04-29T06:06:20.201Z,12.50
2019-04-29T06:08:52.113Z,12.50
2019-04-29T06:11:23.876Z,12.60
2019-04-29T06:13:55.603Z,12.80
2019-04-29T06:16:27.168Z,12.90
2019-04-29T06:19:00.368Z,12.90
2019-04-29T06:21:32.254Z,13.00
2019-04-29T06:24:06.097Z,13.00
2019-04-29T06:26:37.630Z,13.00
2019-04-29T06:29:09.943Z,13.10
2019-04-29T06:31:41.835Z,13.20
2019-04-29T06:34:13.648Z,13.30
2019-04-29T06:36:46.135Z,13.40
2019-04-29T06:39:17.905Z,13.40
2019-04-29T06:41:49.896Z,13.50
2019-04-29T06:44:21.747Z,13.60
2019-04-29T06:46:54.434Z,13.60
2019-04-29T06:49:26.859Z,13.60
2019-04-29T06:51:58.661Z,13.80
2019-04-29T06:54:31.019Z,13.80
2019-04-29T06:57:02.871Z,13.80
2019-04-29T06:59:34.589Z,13.80
2019-04-29T07:02:09.353Z,14.00
2019-04-29T07:04:41.443Z,14.10
2019-04-29T07:07:13.270Z,14.20
2019-04-29T07:09:44.956Z,14.30
2019-04-29T07:12:17.099Z,14.30
2019-04-29T07:14:49.240Z,14.40
2019-04-29T07:17:21.524Z,14.40
2019-04-29T07:19:53.688Z,14.50
2019-04-29T07:22:27.540Z,14.50
2019-04-29T07:24:59.713Z,14.60
2019-04-29T07:27:34.854Z,14.70
2019-04-29T07:30:06.694Z,14.70
2019-04-29T07:32:42.013Z,14.80
2019-04-29T07:35:13.759Z,14.90
2019-04-29T07:37:45.962Z,14.90
2019-04-29T07:40:18.400Z,15.00
2019-04-29T07:42:50.399Z,15.10
2019-04-29T07:45:58.814Z,15.10
2019-04-29T07:48:30.039Z,15.10
2019-04-29T07:51:04.201Z,15.20
2019-04-29T07:53:44.726Z,15.20
2019-04-29T07:56:13.080Z,15.20
2019-04-29T07:58:48.254Z,15.10
2019-04-29T08:01:19.731Z,15.10
2019-04-29T08:03:52.299Z,15.10
2019-04-29T08:06:24.864Z,15.20
2019-04-29T08:09:02.918Z,15.20
2019-04-29T08:11:31.576Z,15.30
2019-04-29T08:14:04.251Z,15.30
2019-04-29T08:16:36.501Z,15.40
2019-04-29T08:19:08.501Z,15.60
2019-04-29T08:21:40.495Z,15.80
2019-04-29T08:24:15.759Z,15.90
2019-04-29T08:26:47.683Z,15.90
2019-04-29T08:29:19.788Z,16.00
2019-04-29T08:31:56.709Z,16.10
2019-04-29T08:34:25.638Z,16.10
2019-04-29T08:36:58.157Z,16.10
2019-04-29T08:39:31.166Z,16.20
2019-04-29T08:42:08.966Z,16.30
2019-04-29T08:45:01.586Z,16.50
2019-04-29T08:47:35.337Z,16.50
2019-04-29T08:50:07.716Z,16.70
2019-04-29T08:52:39.947Z,16.80
2019-04-29T08:55:11.697Z,17.10
2019-04-29T08:57:43.897Z,17.30
2019-04-29T09:00:16.497Z,17.50
2019-04-29T09:02:49.442Z,17.50
2019-04-29T09:05:21.617Z,17.40
2019-04-29T09:07:57.226Z,17.40
2019-04-29T09:10:27.562Z,17.50
2019-04-29T09:13:00.091Z,17.50
2019-04-29T09:15:32.409Z,17.70
2019-04-29T09:18:04.399Z,17.90
2019-04-29T09:20:36.676Z,17.90
2019-04-29T09:23:11.450Z,18.00
2019-04-29T09:26:02.757Z,18.20
2019-04-29T09:28:35.201Z,18.40
2019-04-29T09:31:07.439Z,18.50
2019-04-29T09:33:39.769Z,18.70
2019-04-29T09:36:13.822Z,18.90
2019-04-29T09:38:45.823Z,19.00
2019-04-29T09:41:30.641Z,19.20
2019-04-29T09:44:11.795Z,19.20
2019-04-29T09:46:43.465Z,19.20
2019-04-29T09:49:15.727Z,19.20
2019-04-29T09:51:48.937Z,19.10
2019-04-29T09:54:20.867Z,19.10
2019-04-29T09:56:52.868Z,19.10
2019-04-29T09:59:30.304Z,19.00
2019-04-29T10:02:19.723Z,18.90
2019-04-29T10:05:17.062Z,19.00
2019-04-29T10:07:49.357Z,19.10
2019-04-29T10:10:21.903Z,19.20
2019-04-29T10:12:54.218Z,19.30
2019-04-29T10:15:36.451Z,19.40
2019-04-29T10:18:31.444Z,19.60
2019-04-29T10:21:09.565Z,19.80
2019-04-29T10:23:41.616Z,20.00
2019-04-29T10:26:13.929Z,20.00
2019-04-29T10:28:54.254Z,19.90
2019-04-29T10:31:26.423Z,19.70
2019-04-29T10:33:58.555Z,19.40
2019-04-29T10:36:30.802Z,19.20
2019-04-29T10:39:18.549Z,19.20
2019-04-29T10:41:50.285Z,19.30
2019-04-29T10:44:33.733Z,19.40
2019-04-29T10:47:23.164Z,19.50
2019-04-29T10:50:01.861Z,19.80
2019-04-29T10:52:38.587Z,19.90
2019-04-29T10:55:09.478Z,19.80
2019-04-29T10:57:44.932Z,19.80
2019-04-29T11:00:35.313Z,19.70
2019-04-29T11:03:07.834Z,19.60
2019-04-29T11:05:59.913Z,19.60
2019-04-29T11:08:44.480Z,19.80
2019-04-29T11:11:24.180Z,19.70
2019-04-29T11:13:50.776Z,19.70
2019-04-29T11:16:29.450Z,19.70
2019-04-29T11:19:00.253Z,19.80
2019-04-29T11:21:31.354Z,19.80
2019-04-29T11:24:23.202Z,19.80
2019-04-29T11:27:12.483Z,19.80
2019-04-29T11:29:44.884Z,19.90
2019-04-29T11:32:28.773Z,19.90
2019-04-29T11:35:08.346Z,19.90
2019-04-29T11:37:40.716Z,19.90
2019-04-29T11:40:13.205Z,19.80
2019-04-29T11:42:45.222Z,19.80
2019-04-29T11:45:17.973Z,19.60
2019-04-29T11:47:50.179Z,19.60
2019-04-29T11:50:34.524Z,19.70
2019-04-29T11:53:07.065Z,19.60
2019-04-29T11:55:42.235Z,19.50
2019-04-29T11:58:23.945Z,19.80
2019-04-29T12:01:38.518Z,19.90
2019-04-29T12:04:02.632Z,19.70
2019-04-29T12:06:35.160Z,19.70
2019-04-29T12:09:09.082Z,19.70
2019-04-29T12:11:44.462Z,19.90
2019-04-29T12:14:37.955Z,20.00
2019-04-29T12:17:19.937Z,20.30
2019-04-29T12:19:56.091Z,20.30
2019-04-29T12:22:30.838Z,20.40
2019-04-29T12:25:05.853Z,20.30
2019-04-29T12:27:39.065Z,20.20
2019-04-29T12:30:13.304Z,20.50
2019-04-29T12:33:01.312Z,20.60
2019-04-29T12:35:51.742Z,20.70
2019-04-29T12:38:51.086Z,20.70
2019-04-29T12:41:48.507Z,20.60
2019-04-29T12:44:45.788Z,20.40
2019-04-29T12:47:26.556Z,20.30
2019-04-29T12:49:58.992Z,20.40
2019-04-29T12:52:31.300Z,20.40
2019-04-29T12:55:19.315Z,20.40
2019-04-29T12:57:38.503Z,20.20
2019-04-29T13:00:13.138Z,20.30
2019-04-29T13:03:01.632Z,20.30
2019-04-29T13:06:09.649Z,20.40
2019-04-29T13:08:50.686Z,20.50
2019-04-29T13:11:36.006Z,20.60
2019-04-29T13:14:01.399Z,20.70
2019-04-29T13:16:50.915Z,20.60
2019-04-29T13:19:31.089Z,20.40
2019-04-29T13:22:10.672Z,20.20
2019-04-29T13:24:44.107Z,20.20
2019-04-29T13:29:56.600Z,20.30
2019-04-29T13:35:23.436Z,20.40
2019-04-29T13:43:28.011Z,20.30
2019-04-29T13:46:21.359Z,20.40
2019-04-29T13:49:13.475Z,20.40
2019-04-29T13:51:46.358Z,20.50
2019-04-29T13:54:18.019Z,20.60
2019-04-29T13:56:55.917Z,20.90
2019-04-29T13:59:37.599Z,21.10
2019-04-29T14:02:30.811Z,21.30
2019-04-29T14:05:09.994Z,21.10
2019-04-29T14:07:54.442Z,21.10
2019-04-29T14:10:25.846Z,21.10
2019-04-29T14:15:40.375Z,21.00
2019-04-29T14:18:11.800Z,21.20
2019-04-29T14:18:53.484Z,21.10
2019-04-29T14:20:47.319Z,21.40
2019-04-29T14:26:09.299Z,21.30
2019-04-29T14:28:41.106Z,21.40
2019-04-29T14:31:13.682Z,21.50
2019-04-29T14:34:00.326Z,21.20
2019-04-29T14:36:31.177Z,21.10
2019-04-29T14:39:02.706Z,21.20
2019-04-29T14:41:37.346Z,21.10
2019-04-29T14:44:41.065Z,20.80
2019-04-29T14:47:35.544Z,20.50
2019-04-29T14:50:10.750Z,19.90
2019-04-29T14:52:44.787Z,19.60
2019-04-29T14:55:34.223Z,19.80
2019-04-29T14:58:09.277Z,20.20
2019-04-29T15:03:57.474Z,20.00
2019-04-29T15:06:29.077Z,19.90
2019-04-29T15:09:00.661Z,19.60
2019-04-29T15:11:41.164Z,19.50
2019-04-29T15:14:28.626Z,19.80
2019-04-29T15:17:12.789Z,19.80
2019-04-29T15:19:58.366Z,20.00
2019-04-29T15:22:33.321Z,19.50
2019-04-29T15:25:04.921Z,19.10
2019-04-29T15:27:36.562Z,18.40
2019-04-29T15:30:08.619Z,17.80
2019-04-29T15:32:40.278Z,17.30
2019-04-29T15:35:19.862Z,16.80
2019-04-29T15:37:53.482Z,16.50
2019-04-29T15:40:26.117Z,16.30
2019-04-29T15:42:58.571Z,16.20
2019-04-29T15:45:32.547Z,16.00
2019-04-29T15:48:03.409Z,15.80
2019-04-29T15:50:37.081Z,15.60
2019-04-29T15:53:09.610Z,15.50
2019-04-29T15:55:41.312Z,15.50
2019-04-29T15:58:14.279Z,15.60
2019-04-29T16:00:46.611Z,15.50
2019-04-29T16:03:23.740Z,15.40
2019-04-29T16:06:20.819Z,15.30
2019-04-29T16:09:00.289Z,15.20
2019-04-29T16:11:55.534Z,15.30
2019-04-29T16:14:35.678Z,15.10
2019-04-29T16:17:06.979Z,14.80
2019-04-29T16:19:39.318Z,14.80
2019-04-29T16:22:12.857Z,14.80
2019-04-29T16:24:45.250Z,14.70
2019-04-29T16:27:18.359Z,14.60
2019-04-29T16:29:51.572Z,14.60
2019-04-29T16:32:30.531Z,14.60
2019-04-29T16:35:03.088Z,14.60
2019-04-29T16:37:40.472Z,14.80
2019-04-29T16:40:13.079Z,14.60
2019-04-29T16:43:07.497Z,14.30
2019-04-29T16:45:51.538Z,14.20
2019-04-29T16:48:19.694Z,14.00
2019-04-29T16:50:51.214Z,14.30
2019-04-29T16:53:22.570Z,14.50
2019-04-29T16:55:55.610Z,14.90
2019-04-29T16:58:26.879Z,14.70
2019-04-29T17:00:57.960Z,14.30
2019-04-29T17:03:29.322Z,14.10
2019-04-29T17:06:01.071Z,14.20
2019-04-29T17:09:03.003Z,14.10
2019-04-29T17:11:28.350Z,14.00
2019-04-29T17:14:03.625Z,13.60
2019-04-29T17:16:33.290Z,13.20
2019-04-29T17:19:04.991Z,12.90
2019-04-29T17:21:36.434Z,12.70
2019-04-29T17:24:07.433Z,12.40
2019-04-29T17:26:54.411Z,12.10
2019-04-29T17:29:55.360Z,11.80
2019-04-29T17:32:50.235Z,11.60
2019-04-29T17:35:23.175Z,11.30
2019-04-29T17:37:55.233Z,11.10
2019-04-29T17:40:27.448Z,11.00
2019-04-29T17:43:10.165Z,10.80
2019-04-29T17:45:50.306Z,10.70
2019-04-29T17:48:28.847Z,10.60
2019-04-29T17:51:04.615Z,10.50
2019-04-29T17:53:41.016Z,10.40
2019-04-29T17:56:35.076Z,10.30
2019-04-29T17:59:43.528Z,10.20
2019-04-29T18:02:42.520Z,10.10
2019-04-29T18:05:52.190Z,10.00
2019-04-29T18:08:23.140Z,9.90
2019-04-29T18:10:55.808Z,9.90
2019-04-29T18:13:26.942Z,9.80
2019-04-29T18:16:03.363Z,9.70
2019-04-29T18:18:46.547Z,9.60
2019-04-29T18:21:37.284Z,9.60
2019-04-29T18:24:16.735Z,9.50
2019-04-29T18:26:57.787Z,9.40
2019-04-29T18:29:29.062Z,9.40
2019-04-29T18:32:04.381Z,9.30
2019-04-29T18:34:34.385Z,9.30
2019-04-29T18:37:06.645Z,9.20
2019-04-29T18:39:38.674Z,9.10
2019-04-29T18:42:10.137Z,9.10
2019-04-29T18:44:54.089Z,9.00
2019-04-29T18:47:22.006Z,8.90
2019-04-29T18:49:47.321Z,8.90
2019-04-29T18:52:25.877Z,8.80
2019-04-29T18:54:51.253Z,8.80
2019-04-29T18:57:30.105Z,8.70
2019-04-29T18:59:55.079Z,8.80
2019-04-29T19:02:27.808Z,8.70
2019-04-29T19:05:07.791Z,8.70
2019-04-29T19:07:39.998Z,8.60
2019-04-29T19:10:14.733Z,8.50
2019-04-29T19:12:57.564Z,8.50
2019-04-29T19:15:20.273Z,8.50
2019-04-29T19:17:59.154Z,8.40
2019-04-29T19:20:25.673Z,8.40
2019-04-29T19:23:05.713Z,8.30
2019-04-29T19:25:32.834Z,8.30
2019-04-29T19:28:12.731Z,8.30
2019-04-29T19:30:37.848Z,8.20
2019-04-29T19:33:09.039Z,8.20
2019-04-29T19:35:40.452Z,8.20
2019-04-29T19:38:13.466Z,8.20
2019-04-29T19:40:44.515Z,8.10
2019-04-29T19:43:18.909Z,8.10
2019-04-29T19:45:50.370Z,8.10
2019-04-29T19:48:22.605Z,8.00
2019-04-29T19:51:13.920Z,8.00
2019-04-29T19:53:26.912Z,7.90
2019-04-29T19:56:04.075Z,7.90
2019-04-29T19:58:33.738Z,7.90
2019-04-29T20:01:13.753Z,7.90
2019-04-29T20:03:49.562Z,7.90
2019-04-29T20:06:25.188Z,7.90
2019-04-29T20:09:00.210Z,7.80
2019-04-29T20:11:32.741Z,7.80
2019-04-29T20:14:05.689Z,7.80
2019-04-29T20:16:57.259Z,7.70
2019-04-29T20:20:00.270Z,7.70
2019-04-29T20:22:31.530Z,7.60
2019-04-29T20:25:02.692Z,7.60
2019-04-29T20:27:35.671Z,7.60
2019-04-29T20:30:15.948Z,7.50
2019-04-29T20:32:41.005Z,7.40
2019-04-29T20:35:12.692Z,7.40
2019-04-29T20:37:47.432Z,7.30
2019-04-29T20:40:17.106Z,7.30
2019-04-29T20:42:49.350Z,7.30
2019-04-29T20:45:25.421Z,7.20
2019-04-29T20:47:55.913Z,7.20
2019-04-29T20:50:37.593Z,7.20
2019-04-29T20:53:15.733Z,7.20
2019-04-29T20:55:47.808Z,7.20
2019-04-29T20:58:23.607Z,7.10
2019-04-29T21:00:58.188Z,7.10
2019-04-29T21:03:29.959Z,7.10
2019-04-29T21:06:02.341Z,7.10
2019-04-29T21:08:34.566Z,7.10
2019-04-29T21:11:16.133Z,7.10
2019-04-29T21:14:11.297Z,7.20
2019-04-29T21:16:46.832Z,7.10
2019-04-29T21:19:18.712Z,7.20
2019-04-29T21:21:51.952Z,7.20
2019-04-29T21:24:25.142Z,7.20
2019-04-29T21:26:57.672Z,7.20
2019-04-29T21:29:28.929Z,7.20
2019-04-29T21:32:01.767Z,7.20
2019-04-29T21:34:41.431Z,7.20
2019-04-29T21:37:39.930Z,7.10
2019-04-29T21:40:27.617Z,7.10
2019-04-29T21:43:13.610Z,7.00
2019-04-29T21:45:44.992Z,7.00
2019-04-29T21:48:16.774Z,7.00
2019-04-29T21:50:47.829Z,6.90
2019-04-29T21:53:19.381Z,7.00
2019-04-29T21:55:50.494Z,6.90
2019-04-29T21:58:21.402Z,6.90
2019-04-29T22:00:55.960Z,6.90
2019-04-29T22:03:27.827Z,6.90
2019-04-29T22:11:43.184Z,6.90
2019-04-29T22:14:17.022Z,6.90
2019-04-29T22:16:53.568Z,6.80
2019-04-29T22:19:26.146Z,6.90
2019-04-29T22:21:57.849Z,6.90
2019-04-29T22:24:27.678Z,6.90
2019-04-29T22:27:04.216Z,6.90
2019-04-29T22:29:36.669Z,7.00
2019-04-29T22:32:07.623Z,7.00
2019-04-29T22:34:37.246Z,7.00
2019-04-29T22:37:08.411Z,6.90
2019-04-29T22:39:39.229Z,6.80
2019-04-29T22:42:37.473Z,6.80
2019-04-29T22:45:08.923Z,6.70
2019-04-29T22:47:40.163Z,6.70
2019-04-29T22:50:11.598Z,6.70
2019-04-29T22:52:42.486Z,6.60
2019-04-29T22:55:15.494Z,6.60
2019-04-29T22:57:46.977Z,6.50
2019-04-29T23:00:20.576Z,6.50
2019-04-29T23:02:51.498Z,6.50
2019-04-29T23:05:23.582Z,6.50
2019-04-29T23:07:57.039Z,6.50
2019-04-29T23:10:28.046Z,6.40
2019-04-29T23:12:59.166Z,6.40
2019-04-29T23:15:30.353Z,6.50
2019-04-29T23:18:01.392Z,6.40
2019-04-29T23:20:55.363Z,6.40
2019-04-29T23:23:33.747Z,6.40
2019-04-29T23:26:05.587Z,6.30
2019-04-29T23:28:36.633Z,6.30
2019-04-29T23:31:07.623Z,6.30
2019-04-29T23:33:38.732Z,6.30
2019-04-29T23:36:13.646Z,6.30
2019-04-29T23:38:44.151Z,6.30
2019-04-29T23:41:15.399Z,6.20
2019-04-29T23:43:47.577Z,6.20
2019-04-29T23:46:18.450Z,6.10
2019-04-29T23:48:49.398Z,6.10
2019-04-29T23:51:20.257Z,6.10
2019-04-29T23:53:51.102Z,6.10
2019-04-29T23:56:23.759Z,6.10
2019-04-29T23:59:05.527Z,6.10
